sensor_id;sensor_type;location;lat;lon;timestamp;pressure;altitude;pressure_sealevel;temperature;humidity
8320;BME280;4197;42.130;24.746;2023-12-20T00:01:49;99940.28;;;1.56;100.00
8320;BME280;4197;42.130;24.746;2023-12-20T00:04:18;99945.13;;;1.54;100.00
8320;BME280;4197;42.130;24.746;2023-12-20T00:06:46;99947.28;;;1.52;100.00
8320;BME280;4197;42.130;24.746;2023-12-20T00:09:19;99949.97;;;1.52;100.00
8320;BME280;4197;42.130;24.746;2023-12-20T00:11:48;99941.13;;;1.52;100.00
8320;BME280;4197;42.130;24.746;2023-12-20T00:14:16;99942.44;;;1.54;100.00
8320;BME280;4197;42.130;24.746;2023-12-20T00:16:44;99936.03;;;1.55;100.00
8320;BME280;4197;42.130;24.746;2023-12-20T00:19:13;99936.03;;;1.55;100.00
8320;BME280;4197;42.130;24.746;2023-12-20T00:21:41;99937.88;;;1.55;100.00
8320;BME280;4197;42.130;24.746;2023-12-20T00:24:10;99941.88;;;1.58;100.00
8320;BME280;4197;42.130;24.746;2023-12-20T00:26:40;99945.06;;;1.60;100.00
8320;BME280;4197;42.130;24.746;2023-12-20T00:29:08;99941.88;;;1.58;100.00
8320;BME280;4197;42.130;24.746;2023-12-20T00:31:36;99928.50;;;1.58;100.00
8320;BME280;4197;42.130;24.746;2023-12-20T00:34:05;99933.06;;;1.57;100.00
8320;BME280;4197;42.130;24.746;2023-12-20T00:36:33;99915.72;;;1.54;100.00
8320;BME280;4197;42.130;24.746;2023-12-20T00:39:02;99903.13;;;1.55;100.00
8320;BME280;4197;42.130;24.746;2023-12-20T00:41:30;99909.34;;;1.50;100.00
8320;BME280;4197;42.130;24.746;2023-12-20T00:44:00;99914.97;;;1.49;100.00
8320;BME280;4197;42.130;24.746;2023-12-20T00:46:28;99900.59;;;1.45;100.00
8320;BME280;4197;42.130;24.746;2023-12-20T00:48:56;99898.75;;;1.40;100.00
8320;BME280;4197;42.130;24.746;2023-12-20T00:51:25;99901.97;;;1.37;100.00
8320;BME280;4197;42.130;24.746;2023-12-20T00:53:53;99897.47;;;1.32;100.00
8320;BME280;4197;42.130;24.746;2023-12-20T00:56:22;99895.09;;;1.31;100.00
8320;BME280;4197;42.130;24.746;2023-12-20T00:58:50;99885.78;;;1.28;100.00
8320;BME280;4197;42.130;24.746;2023-12-20T01:01:21;99884.41;;;1.31;100.00
8320;BME280;4197;42.130;24.746;2023-12-20T01:03:49;99879.88;;;1.31;100.00
8320;BME280;4197;42.130;24.746;2023-12-20T01:06:18;99881.97;;;1.34;100.00
8320;BME280;4197;42.130;24.746;2023-12-20T01:08:47;99875.00;;;1.39;100.00
8320;BME280;4197;42.130;24.746;2023-12-20T01:11:15;99871.00;;;1.36;100.00
8320;BME280;4197;42.130;24.746;2023-12-20T01:13:43;99865.41;;;1.32;100.00
8320;BME280;4197;42.130;24.746;2023-12-20T01:16:12;99861.19;;;1.26;100.00
8320;BME280;4197;42.130;24.746;2023-12-20T01:18:41;99862.28;;;1.25;100.00
8320;BME280;4197;42.130;24.746;2023-12-20T01:21:10;99857.00;;;1.20;100.00
8320;BME280;4197;42.130;24.746;2023-12-20T01:23:38;99850.06;;;1.19;100.00
8320;BME280;4197;42.130;24.746;2023-12-20T01:26:07;99851.34;;;1.22;100.00
8320;BME280;4197;42.130;24.746;2023-12-20T01:28:35;99844.66;;;1.24;100.00
8320;BME280;4197;42.130;24.746;2023-12-20T01:31:04;99840.91;;;1.25;100.00
8320;BME280;4197;42.130;24.746;2023-12-20T01:33:33;99849.38;;;1.32;100.00
8320;BME280;4197;42.130;24.746;2023-12-20T01:36:03;99842.94;;;1.39;100.00
8320;BME280;4197;42.130;24.746;2023-12-20T01:38:32;99845.16;;;1.26;100.00
8320;BME280;4197;42.130;24.746;2023-12-20T01:41:00;99843.59;;;1.25;100.00
8320;BME280;4197;42.130;24.746;2023-12-20T01:43:29;99840.97;;;1.20;100.00
8320;BME280;4197;42.130;24.746;2023-12-20T01:46:13;99844.72;;;1.19;100.00
8320;BME280;4197;42.130;24.746;2023-12-20T01:48:42;99842.06;;;1.19;100.00
8320;BME280;4197;42.130;24.746;2023-12-20T01:51:12;99833.75;;;1.21;100.00
8320;BME280;4197;42.130;24.746;2023-12-20T01:53:41;99818.22;;;1.23;100.00
8320;BME280;4197;42.130;24.746;2023-12-20T01:56:10;99822.31;;;1.15;100.00
8320;BME280;4197;42.130;24.746;2023-12-20T01:58:44;99815.13;;;1.10;100.00
8320;BME280;4197;42.130;24.746;2023-12-20T02:01:13;99820.03;;;1.03;100.00
8320;BME280;4197;42.130;24.746;2023-12-20T02:03:42;99817.66;;;0.97;100.00
8320;BME280;4197;42.130;24.746;2023-12-20T02:06:12;99805.44;;;0.91;100.00
8320;BME280;4197;42.130;24.746;2023-12-20T02:08:41;99811.13;;;0.84;100.00
8320;BME280;4197;42.130;24.746;2023-12-20T02:11:10;99799.13;;;0.81;100.00
8320;BME280;4197;42.130;24.746;2023-12-20T02:13:37;99793.25;;;0.79;100.00
8320;BME280;4197;42.130;24.746;2023-12-20T02:16:06;99789.56;;;0.75;100.00
8320;BME280;4197;42.130;24.746;2023-12-20T02:18:35;99789.56;;;0.75;100.00
8320;BME280;4197;42.130;24.746;2023-12-20T02:21:04;99793.25;;;0.79;100.00
8320;BME280;4197;42.130;24.746;2023-12-20T02:23:34;99793.25;;;0.79;100.00
8320;BME280;4197;42.130;24.746;2023-12-20T02:26:03;99783.94;;;0.77;100.00
8320;BME280;4197;42.130;24.746;2023-12-20T02:28:33;99786.34;;;0.78;100.00
8320;BME280;4197;42.130;24.746;2023-12-20T02:31:03;99788.97;;;0.83;100.00
8320;BME280;4197;42.130;24.746;2023-12-20T02:33:31;99783.31;;;0.85;100.00
8320;BME280;4197;42.130;24.746;2023-12-20T02:36:00;99781.00;;;0.78;100.00
8320;BME280;4197;42.130;24.746;2023-12-20T02:38:28;99781.00;;;0.78;100.00
8320;BME280;4197;42.130;24.746;2023-12-20T02:40:58;99777.22;;;0.79;100.00
8320;BME280;4197;42.130;24.746;2023-12-20T02:43:26;99784.69;;;0.82;100.00
8320;BME280;4197;42.130;24.746;2023-12-20T02:45:57;99774.56;;;0.79;100.00
8320;BME280;4197;42.130;24.746;2023-12-20T02:48:25;99771.94;;;0.74;100.00
8320;BME280;4197;42.130;24.746;2023-12-20T02:50:54;99767.38;;;0.75;100.00
8320;BME280;4197;42.130;24.746;2023-12-20T02:53:23;99767.66;;;0.78;100.00
8320;BME280;4197;42.130;24.746;2023-12-20T02:55:51;99752.06;;;0.85;100.00
8320;BME280;4197;42.130;24.746;2023-12-20T02:58:21;99749.66;;;0.89;100.00
8320;BME280;4197;42.130;24.746;2023-12-20T03:00:51;99752.06;;;0.85;100.00
8320;BME280;4197;42.130;24.746;2023-12-20T03:03:19;99757.84;;;0.98;100.00
8320;BME280;4197;42.130;24.746;2023-12-20T03:05:47;99763.75;;;0.95;100.00
8320;BME280;4197;42.130;24.746;2023-12-20T03:08:16;99755.78;;;0.89;100.00
8320;BME280;4197;42.130;24.746;2023-12-20T03:10:44;99749.41;;;0.85;100.00
8320;BME280;4197;42.130;24.746;2023-12-20T03:13:12;99745.50;;;0.78;100.00
8320;BME280;4197;42.130;24.746;2023-12-20T03:15:42;99746.56;;;0.77;100.00
8320;BME280;4197;42.130;24.746;2023-12-20T03:18:11;99750.28;;;0.81;100.00
8320;BME280;4197;42.130;24.746;2023-12-20T03:20:39;99746.75;;;0.85;100.00
8320;BME280;4197;42.130;24.746;2023-12-20T03:23:08;99745.13;;;0.89;100.00
8320;BME280;4197;42.130;24.746;2023-12-20T03:25:36;99741.91;;;0.87;100.00
8320;BME280;4197;42.130;24.746;2023-12-20T03:28:05;99737.41;;;0.83;100.00
8320;BME280;4197;42.130;24.746;2023-12-20T03:30:34;99739.34;;;0.77;100.00
8320;BME280;4197;42.130;24.746;2023-12-20T03:33:04;99737.19;;;0.79;100.00
8320;BME280;4197;42.130;24.746;2023-12-20T03:35:32;99730.88;;;0.70;100.00
8320;BME280;4197;42.130;24.746;2023-12-20T03:38:00;99730.94;;;0.65;100.00
8320;BME280;4197;42.130;24.746;2023-12-20T03:40:29;99722.44;;;0.58;100.00
8320;BME280;4197;42.130;24.746;2023-12-20T03:42:57;99724.09;;;0.54;100.00
8320;BME280;4197;42.130;24.746;2023-12-20T03:45:26;99721.72;;;0.47;100.00
8320;BME280;4197;42.130;24.746;2023-12-20T03:47:54;99725.78;;;0.44;100.00
8320;BME280;4197;42.130;24.746;2023-12-20T03:50:25;99722.59;;;0.42;100.00
8320;BME280;4197;42.130;24.746;2023-12-20T03:52:54;99726.31;;;0.41;100.00
8320;BME280;4197;42.130;24.746;2023-12-20T03:55:22;99726.06;;;0.38;100.00
8320;BME280;4197;42.130;24.746;2023-12-20T03:57:51;99737.56;;;0.33;100.00
8320;BME280;4197;42.130;24.746;2023-12-20T04:00:19;99736.56;;;0.29;100.00
8320;BME280;4197;42.130;24.746;2023-12-20T04:02:48;99721.91;;;0.27;100.00
8320;BME280;4197;42.130;24.746;2023-12-20T04:05:15;99726.91;;;0.33;100.00
8320;BME280;4197;42.130;24.746;2023-12-20T04:07:45;99723.19;;;0.34;100.00
8320;BME280;4197;42.130;24.746;2023-12-20T04:10:14;99721.78;;;0.42;100.00
8320;BME280;4197;42.130;24.746;2023-12-20T04:12:42;99719.94;;;0.37;100.00
8320;BME280;4197;42.130;24.746;2023-12-20T04:15:11;99718.06;;;0.38;100.00
8320;BME280;4197;42.130;24.746;2023-12-20T04:17:39;99724.53;;;0.32;100.00
8320;BME280;4197;42.130;24.746;2023-12-20T04:20:08;99721.31;;;0.35;100.00
8320;BME280;4197;42.130;24.746;2023-12-20T04:22:37;99721.34;;;0.30;100.00
8320;BME280;4197;42.130;24.746;2023-12-20T04:25:07;99720.31;;;0.26;100.00
8320;BME280;4197;42.130;24.746;2023-12-20T04:27:36;99721.13;;;0.21;100.00
8320;BME280;4197;42.130;24.746;2023-12-20T04:30:06;99717.44;;;0.17;100.00
8320;BME280;4197;42.130;24.746;2023-12-20T04:32:35;99716.94;;;0.15;100.00
8320;BME280;4197;42.130;24.746;2023-12-20T04:35:03;99713.72;;;0.13;100.00
8320;BME280;4197;42.130;24.746;2023-12-20T04:37:32;99710.75;;;0.19;100.00
8320;BME280;4197;42.130;24.746;2023-12-20T04:40:00;99706.72;;;0.22;100.00
8320;BME280;4197;42.130;24.746;2023-12-20T04:42:30;99701.69;;;0.20;100.00
8320;BME280;4197;42.130;24.746;2023-12-20T04:44:58;99696.91;;;0.17;100.00
8320;BME280;4197;42.130;24.746;2023-12-20T04:47:27;99694.50;;;0.16;100.00
8320;BME280;4197;42.130;24.746;2023-12-20T04:49:56;99684.97;;;0.10;100.00
8320;BME280;4197;42.130;24.746;2023-12-20T04:52:25;99696.19;;;0.07;100.00
8320;BME280;4197;42.130;24.746;2023-12-20T04:54:53;99696.97;;;0.07;100.00
8320;BME280;4197;42.130;24.746;2023-12-20T04:57:22;99678.59;;;0.06;100.00
8320;BME280;4197;42.130;24.746;2023-12-20T04:59:52;99694.06;;;0.04;100.00
8320;BME280;4197;42.130;24.746;2023-12-20T05:02:20;99695.09;;;0.08;100.00
8320;BME280;4197;42.130;24.746;2023-12-20T05:04:49;99688.72;;;0.09;100.00
8320;BME280;4197;42.130;24.746;2023-12-20T05:07:20;99681.78;;;0.08;100.00
8320;BME280;4197;42.130;24.746;2023-12-20T05:09:49;99676.16;;;0.09;100.00
8320;BME280;4197;42.130;24.746;2023-12-20T05:12:17;99685.19;;;0.13;100.00
8320;BME280;4197;42.130;24.746;2023-12-20T05:14:46;99682.78;;;0.17;100.00
8320;BME280;4197;42.130;24.746;2023-12-20T05:17:16;99679.63;;;0.10;100.00
8320;BME280;4197;42.130;24.746;2023-12-20T05:19:44;99667.38;;;0.09;100.00
8320;BME280;4197;42.130;24.746;2023-12-20T05:22:12;99671.44;;;0.01;100.00
8320;BME280;4197;42.130;24.746;2023-12-20T05:24:41;99666.38;;;-0.01;100.00
8320;BME280;4197;42.130;24.746;2023-12-20T05:27:09;99664.81;;;-0.07;100.00
8320;BME280;4197;42.130;24.746;2023-12-20T05:29:38;99667.50;;;-0.12;100.00
8320;BME280;4197;42.130;24.746;2023-12-20T05:32:06;99669.41;;;-0.17;100.00
8320;BME280;4197;42.130;24.746;2023-12-20T05:34:36;99664.63;;;-0.20;100.00
8320;BME280;4197;42.130;24.746;2023-12-20T05:37:05;99652.09;;;-0.20;100.00
8320;BME280;4197;42.130;24.746;2023-12-20T05:39:33;99653.97;;;-0.20;100.00
8320;BME280;4197;42.130;24.746;2023-12-20T05:42:01;99647.88;;;-0.21;100.00
8320;BME280;4197;42.130;24.746;2023-12-20T05:44:30;99656.13;;;-0.23;100.00
8320;BME280;4197;42.130;24.746;2023-12-20T05:46:58;99644.09;;;-0.15;100.00
8320;BME280;4197;42.130;24.746;2023-12-20T05:49:26;99637.38;;;-0.07;100.00
8320;BME280;4197;42.130;24.746;2023-12-20T05:51:56;99640.81;;;-0.07;100.00
8320;BME280;4197;42.130;24.746;2023-12-20T05:54:25;99643.97;;;0.01;100.00
8320;BME280;4197;42.130;24.746;2023-12-20T05:56:53;99645.78;;;0.05;100.00
8320;BME280;4197;42.130;24.746;2023-12-20T05:59:21;99644.00;;;-0.05;100.00
8320;BME280;4197;42.130;24.746;2023-12-20T06:01:50;99641.94;;;-0.13;100.00
8320;BME280;4197;42.130;24.746;2023-12-20T06:04:20;99639.31;;;-0.18;100.00
8320;BME280;4197;42.130;24.746;2023-12-20T06:06:49;99635.31;;;-0.20;100.00
8320;BME280;4197;42.130;24.746;2023-12-20T06:09:19;99633.75;;;-0.21;100.00
8320;BME280;4197;42.130;24.746;2023-12-20T06:11:48;99630.75;;;-0.15;100.00
8320;BME280;4197;42.130;24.746;2023-12-20T06:14:16;99627.50;;;-0.07;100.00
8320;BME280;4197;42.130;24.746;2023-12-20T06:16:45;99631.47;;;-0.04;100.00
8320;BME280;4197;42.130;24.746;2023-12-20T06:19:13;99639.63;;;0.10;100.00
8320;BME280;4197;42.130;24.746;2023-12-20T06:21:42;99639.19;;;0.32;100.00
8320;BME280;4197;42.130;24.746;2023-12-20T06:24:11;99638.69;;;0.25;100.00
8320;BME280;4197;42.130;24.746;2023-12-20T06:26:41;99640.53;;;0.29;100.00
8320;BME280;4197;42.130;24.746;2023-12-20T06:29:09;99630.88;;;0.33;100.00
8320;BME280;4197;42.130;24.746;2023-12-20T06:31:38;99628.78;;;0.30;100.00
8320;BME280;4197;42.130;24.746;2023-12-20T06:34:06;99626.19;;;0.25;100.00
8320;BME280;4197;42.130;24.746;2023-12-20T06:36:34;99631.44;;;0.30;100.00
8320;BME280;4197;42.130;24.746;2023-12-20T06:39:03;99636.22;;;0.33;100.00
8320;BME280;4197;42.130;24.746;2023-12-20T06:41:32;99642.03;;;0.40;100.00
8320;BME280;4197;42.130;24.746;2023-12-20T06:44:02;99648.09;;;0.46;100.00
8320;BME280;4197;42.130;24.746;2023-12-20T06:46:30;99636.34;;;0.47;100.00
8320;BME280;4197;42.130;24.746;2023-12-20T06:48:58;99634.75;;;0.46;100.00
8320;BME280;4197;42.130;24.746;2023-12-20T06:51:27;99628.63;;;0.46;100.00
8320;BME280;4197;42.130;24.746;2023-12-20T06:53:57;99629.72;;;0.44;100.00
8320;BME280;4197;42.130;24.746;2023-12-20T06:56:26;99621.09;;;0.53;100.00
8320;BME280;4197;42.130;24.746;2023-12-20T06:58:55;99625.34;;;0.54;100.00
8320;BME280;4197;42.130;24.746;2023-12-20T07:01:25;99622.69;;;0.54;100.00
8320;BME280;4197;42.130;24.746;2023-12-20T07:03:53;99627.41;;;0.62;100.00
8320;BME280;4197;42.130;24.746;2023-12-20T07:06:22;99616.94;;;0.65;100.00
8320;BME280;4197;42.130;24.746;2023-12-20T07:08:52;99619.31;;;0.72;100.00
8320;BME280;4197;42.130;24.746;2023-12-20T07:11:21;99610.72;;;0.75;100.00
8320;BME280;4197;42.130;24.746;2023-12-20T07:13:50;99616.56;;;0.77;100.00
8320;BME280;4197;42.130;24.746;2023-12-20T07:16:18;99611.47;;;0.81;100.00
8320;BME280;4197;42.130;24.746;2023-12-20T07:18:48;99610.59;;;0.85;100.00
8320;BME280;4197;42.130;24.746;2023-12-20T07:21:16;99608.44;;;0.87;100.00
8320;BME280;4197;42.130;24.746;2023-12-20T07:23:44;99606.78;;;0.92;100.00
8320;BME280;4197;42.130;24.746;2023-12-20T07:26:13;99602.34;;;1.06;100.00
8320;BME280;4197;42.130;24.746;2023-12-20T07:28:41;99599.88;;;1.09;100.00
8320;BME280;4197;42.130;24.746;2023-12-20T07:31:10;99597.09;;;1.20;100.00
8320;BME280;4197;42.130;24.746;2023-12-20T07:33:39;99589.28;;;1.23;100.00
8320;BME280;4197;42.130;24.746;2023-12-20T07:36:08;99584.28;;;1.36;100.00
8320;BME280;4197;42.130;24.746;2023-12-20T07:38:37;99595.88;;;1.50;100.00
8320;BME280;4197;42.130;24.746;2023-12-20T07:41:05;99593.59;;;1.57;100.00
8320;BME280;4197;42.130;24.746;2023-12-20T07:43:33;99591.59;;;1.68;100.00
8320;BME280;4197;42.130;24.746;2023-12-20T07:46:04;99591.25;;;1.88;100.00
8320;BME280;4197;42.130;24.746;2023-12-20T07:48:32;99592.47;;;1.96;100.00
8320;BME280;4197;42.130;24.746;2023-12-20T07:51:01;99593.69;;;2.04;100.00
8320;BME280;4197;42.130;24.746;2023-12-20T07:53:30;99595.09;;;2.15;100.00
8320;BME280;4197;42.130;24.746;2023-12-20T07:55:59;99585.38;;;2.19;100.00
8320;BME280;4197;42.130;24.746;2023-12-20T07:58:27;99590.56;;;2.29;100.00
8320;BME280;4197;42.130;24.746;2023-12-20T08:01:16;99584.00;;;2.21;100.00
8320;BME280;4197;42.130;24.746;2023-12-20T08:03:46;99583.91;;;2.27;100.00
8320;BME280;4197;42.130;24.746;2023-12-20T08:06:14;99579.97;;;2.38;100.00
8320;BME280;4197;42.130;24.746;2023-12-20T08:08:45;99587.31;;;2.46;100.00
8320;BME280;4197;42.130;24.746;2023-12-20T08:11:24;99578.31;;;2.56;100.00
8320;BME280;4197;42.130;24.746;2023-12-20T08:13:53;99578.50;;;2.59;100.00
8320;BME280;4197;42.130;24.746;2023-12-20T08:16:21;99579.69;;;2.67;100.00
8320;BME280;4197;42.130;24.746;2023-12-20T08:18:50;99573.25;;;2.68;100.00
8320;BME280;4197;42.130;24.746;2023-12-20T08:21:19;99576.31;;;2.89;100.00
8320;BME280;4197;42.130;24.746;2023-12-20T08:23:50;99570.72;;;2.99;100.00
8320;BME280;4197;42.130;24.746;2023-12-20T08:26:19;99571.22;;;3.01;100.00
8320;BME280;4197;42.130;24.746;2023-12-20T08:28:50;99574.47;;;3.12;100.00
8320;BME280;4197;42.130;24.746;2023-12-20T08:31:18;99567.63;;;3.20;100.00
8320;BME280;4197;42.130;24.746;2023-12-20T08:33:49;99554.53;;;3.41;100.00
8320;BME280;4197;42.130;24.746;2023-12-20T08:36:18;99561.16;;;3.57;100.00
8320;BME280;4197;42.130;24.746;2023-12-20T08:38:50;99547.31;;;3.64;100.00
8320;BME280;4197;42.130;24.746;2023-12-20T08:41:18;99538.84;;;3.70;100.00
8320;BME280;4197;42.130;24.746;2023-12-20T08:43:47;99538.91;;;3.79;100.00
8320;BME280;4197;42.130;24.746;2023-12-20T08:46:15;99534.53;;;3.83;100.00
8320;BME280;4197;42.130;24.746;2023-12-20T08:48:44;99529.16;;;3.83;100.00
8320;BME280;4197;42.130;24.746;2023-12-20T08:51:13;99523.47;;;3.85;100.00
8320;BME280;4197;42.130;24.746;2023-12-20T08:53:41;99522.69;;;3.84;100.00
8320;BME280;4197;42.130;24.746;2023-12-20T08:56:14;99515.13;;;3.86;100.00
8320;BME280;4197;42.130;24.746;2023-12-20T08:58:42;99508.00;;;3.82;100.00
8320;BME280;4197;42.130;24.746;2023-12-20T09:01:11;99511.00;;;3.80;100.00
8320;BME280;4197;42.130;24.746;2023-12-20T09:03:39;99501.53;;;3.83;100.00
8320;BME280;4197;42.130;24.746;2023-12-20T09:06:08;99489.75;;;3.92;100.00
8320;BME280;4197;42.130;24.746;2023-12-20T09:08:37;99485.06;;;4.07;100.00
8320;BME280;4197;42.130;24.746;2023-12-20T09:11:06;99491.94;;;4.21;100.00
8320;BME280;4197;42.130;24.746;2023-12-20T09:13:37;99478.06;;;4.37;100.00
8320;BME280;4197;42.130;24.746;2023-12-20T09:16:06;99476.06;;;4.51;100.00
8320;BME280;4197;42.130;24.746;2023-12-20T09:18:34;99463.31;;;4.74;100.00
8320;BME280;4197;42.130;24.746;2023-12-20T09:21:04;99462.06;;;4.89;100.00
8320;BME280;4197;42.130;24.746;2023-12-20T09:23:33;99463.47;;;5.04;100.00
8320;BME280;4197;42.130;24.746;2023-12-20T09:26:02;99453.84;;;4.94;100.00
8320;BME280;4197;42.130;24.746;2023-12-20T09:28:31;99451.78;;;5.00;100.00
8320;BME280;4197;42.130;24.746;2023-12-20T09:31:05;99457.47;;;5.07;100.00
8320;BME280;4197;42.130;24.746;2023-12-20T09:33:35;99456.69;;;5.06;100.00
8320;BME280;4197;42.130;24.746;2023-12-20T09:36:04;99455.59;;;5.07;100.00
8320;BME280;4197;42.130;24.746;2023-12-20T09:38:33;99443.06;;;5.20;100.00
8320;BME280;4197;42.130;24.746;2023-12-20T09:41:02;99430.44;;;5.29;100.00
8320;BME280;4197;42.130;24.746;2023-12-20T09:43:37;99432.00;;;5.30;100.00
8320;BME280;4197;42.130;24.746;2023-12-20T09:46:07;99425.50;;;5.40;100.00
8320;BME280;4197;42.130;24.746;2023-12-20T09:48:37;99422.31;;;5.47;100.00
8320;BME280;4197;42.130;24.746;2023-12-20T09:51:06;99412.34;;;5.47;100.00
8320;BME280;4197;42.130;24.746;2023-12-20T09:53:37;99410.59;;;5.60;100.00
8320;BME280;4197;42.130;24.746;2023-12-20T09:56:07;99410.91;;;5.58;100.00
8320;BME280;4197;42.130;24.746;2023-12-20T09:58:37;99404.53;;;5.72;100.00
8320;BME280;4197;42.130;24.746;2023-12-20T10:01:08;99407.19;;;5.80;100.00
8320;BME280;4197;42.130;24.746;2023-12-20T10:03:39;99394.19;;;5.82;100.00
8320;BME280;4197;42.130;24.746;2023-12-20T10:06:10;99392.28;;;5.83;100.00
8320;BME280;4197;42.130;24.746;2023-12-20T10:08:39;99382.66;;;5.82;100.00
8320;BME280;4197;42.130;24.746;2023-12-20T10:11:07;99376.75;;;5.97;100.00
8320;BME280;4197;42.130;24.746;2023-12-20T10:13:39;99380.63;;;6.09;100.00
8320;BME280;4197;42.130;24.746;2023-12-20T10:16:09;99370.41;;;6.23;100.00
8320;BME280;4197;42.130;24.746;2023-12-20T10:18:38;99368.78;;;6.31;100.00
8320;BME280;4197;42.130;24.746;2023-12-20T10:21:07;99363.41;;;6.31;100.00
8320;BME280;4197;42.130;24.746;2023-12-20T10:23:37;99350.88;;;6.35;100.00
8320;BME280;4197;42.130;24.746;2023-12-20T10:26:07;99355.84;;;6.45;100.00
8320;BME280;4197;42.130;24.746;2023-12-20T10:28:37;99343.66;;;6.27;100.00
8320;BME280;4197;42.130;24.746;2023-12-20T10:31:05;99338.16;;;6.14;100.00
8320;BME280;4197;42.130;24.746;2023-12-20T10:33:35;99337.25;;;6.10;100.00
8320;BME280;4197;42.130;24.746;2023-12-20T10:36:05;99336.78;;;6.08;100.00
8320;BME280;4197;42.130;24.746;2023-12-20T10:38:36;99339.28;;;6.13;100.00
8320;BME280;4197;42.130;24.746;2023-12-20T10:41:06;99325.25;;;6.29;100.00
8320;BME280;4197;42.130;24.746;2023-12-20T10:43:37;99313.41;;;6.63;100.00
8320;BME280;4197;42.130;24.746;2023-12-20T10:46:06;99302.19;;;6.61;100.00
8320;BME280;4197;42.130;24.746;2023-12-20T10:48:38;99300.66;;;6.72;100.00
8320;BME280;4197;42.130;24.746;2023-12-20T10:51:08;99295.63;;;6.83;100.00
8320;BME280;4197;42.130;24.746;2023-12-20T10:53:37;99292.19;;;6.95;100.00
8320;BME280;4197;42.130;24.746;2023-12-20T10:56:08;99298.69;;;6.93;100.00
8320;BME280;4197;42.130;24.746;2023-12-20T10:58:40;99289.28;;;7.00;100.00
8320;BME280;4197;42.130;24.746;2023-12-20T11:01:12;99276.03;;;7.07;100.00
8320;BME280;4197;42.130;24.746;2023-12-20T11:03:44;99274.91;;;7.08;100.00
8320;BME280;4197;42.130;24.746;2023-12-20T11:06:21;99267.72;;;7.12;100.00
8320;BME280;4197;42.130;24.746;2023-12-20T11:09:03;99270.56;;;7.15;100.00
8320;BME280;4197;42.130;24.746;2023-12-20T11:11:44;99260.88;;;7.14;100.00
8320;BME280;4197;42.130;24.746;2023-12-20T11:14:20;99256.63;;;7.38;100.00
8320;BME280;4197;42.130;24.746;2023-12-20T11:16:49;99246.38;;;7.56;100.00
8320;BME280;4197;42.130;24.746;2023-12-20T11:19:22;99253.91;;;7.50;100.00
8320;BME280;4197;42.130;24.746;2023-12-20T11:21:51;99250.13;;;7.51;100.00
8320;BME280;4197;42.130;24.746;2023-12-20T11:24:22;99244.03;;;7.67;100.00
8320;BME280;4197;42.130;24.746;2023-12-20T11:26:55;99241.31;;;7.67;100.00
8320;BME280;4197;42.130;24.746;2023-12-20T11:29:31;99226.50;;;7.60;100.00
8320;BME280;4197;42.130;24.746;2023-12-20T11:32:01;99228.19;;;7.65;100.00
8320;BME280;4197;42.130;24.746;2023-12-20T11:34:33;99222.44;;;7.79;100.00
8320;BME280;4197;42.130;24.746;2023-12-20T11:37:04;99214.75;;;7.81;100.00
8320;BME280;4197;42.130;24.746;2023-12-20T11:39:32;99215.22;;;7.83;100.00
8320;BME280;4197;42.130;24.746;2023-12-20T11:42:04;99206.44;;;7.86;100.00
8320;BME280;4197;42.130;24.746;2023-12-20T11:44:36;99210.34;;;8.01;100.00
8320;BME280;4197;42.130;24.746;2023-12-20T11:47:04;99208.31;;;7.98;100.00
8320;BME280;4197;42.130;24.746;2023-12-20T11:49:34;99202.56;;;7.99;100.00
8320;BME280;4197;42.130;24.746;2023-12-20T11:52:03;99200.56;;;7.96;100.00
8320;BME280;4197;42.130;24.746;2023-12-20T11:54:32;99187.59;;;8.02;100.00
8320;BME280;4197;42.130;24.746;2023-12-20T11:57:00;99189.28;;;8.07;100.00
8320;BME280;4197;42.130;24.746;2023-12-20T11:59:29;99181.75;;;8.40;100.00
8320;BME280;4197;42.130;24.746;2023-12-20T12:01:59;99173.66;;;8.28;100.00
8320;BME280;4197;42.130;24.746;2023-12-20T12:04:28;99172.09;;;8.27;99.46
8320;BME280;4197;42.130;24.746;2023-12-20T12:06:58;99165.38;;;8.21;83.91
8320;BME280;4197;42.130;24.746;2023-12-20T12:09:27;99162.69;;;8.09;79.15
8320;BME280;4197;42.130;24.746;2023-12-20T12:11:55;99158.19;;;8.13;79.25
8320;BME280;4197;42.130;24.746;2023-12-20T12:14:24;99158.81;;;8.22;78.89
8320;BME280;4197;42.130;24.746;2023-12-20T12:16:52;99151.09;;;8.20;79.33
8320;BME280;4197;42.130;24.746;2023-12-20T12:19:22;99147.94;;;8.18;79.43
8320;BME280;4197;42.130;24.746;2023-12-20T12:21:50;99151.66;;;8.14;79.73
8320;BME280;4197;42.130;24.746;2023-12-20T12:24:21;99155.28;;;8.34;78.26
8320;BME280;4197;42.130;24.746;2023-12-20T12:26:50;99145.06;;;8.27;79.87
8320;BME280;4197;42.130;24.746;2023-12-20T12:29:19;99144.63;;;8.25;80.16
8320;BME280;4197;42.130;24.746;2023-12-20T12:31:50;99141.59;;;8.26;81.25
8320;BME280;4197;42.130;24.746;2023-12-20T12:34:19;99140.28;;;8.20;82.55
8320;BME280;4197;42.130;24.746;2023-12-20T12:36:48;99143.59;;;8.30;82.95
8320;BME280;4197;42.130;24.746;2023-12-20T12:39:18;99126.69;;;8.33;81.93
8320;BME280;4197;42.130;24.746;2023-12-20T12:41:47;99125.91;;;8.32;82.08
8320;BME280;4197;42.130;24.746;2023-12-20T12:44:16;99130.41;;;8.28;80.84
8320;BME280;4197;42.130;24.746;2023-12-20T12:46:45;99124.94;;;8.24;82.00
8320;BME280;4197;42.130;24.746;2023-12-20T12:49:14;99121.44;;;8.24;81.29
8320;BME280;4197;42.130;24.746;2023-12-20T12:51:42;99123.66;;;8.34;81.94
8320;BME280;4197;42.130;24.746;2023-12-20T12:54:12;99114.41;;;8.35;81.29
8320;BME280;4197;42.130;24.746;2023-12-20T12:56:43;99115.06;;;8.44;81.65
8320;BME280;4197;42.130;24.746;2023-12-20T12:59:13;99109.31;;;8.46;81.79
8320;BME280;4197;42.130;24.746;2023-12-20T13:01:41;99119.50;;;8.53;81.85
8320;BME280;4197;42.130;24.746;2023-12-20T13:04:10;99117.25;;;8.55;81.65
8320;BME280;4197;42.130;24.746;2023-12-20T13:06:38;99110.38;;;8.57;81.60
8320;BME280;4197;42.130;24.746;2023-12-20T13:09:08;99112.69;;;8.59;81.73
8320;BME280;4197;42.130;24.746;2023-12-20T13:11:37;99114.63;;;8.58;81.73
8320;BME280;4197;42.130;24.746;2023-12-20T13:14:06;99108.09;;;8.59;81.76
8320;BME280;4197;42.130;24.746;2023-12-20T13:16:39;99099.63;;;8.61;82.20
8320;BME280;4197;42.130;24.746;2023-12-20T13:19:07;99099.31;;;8.62;82.27
8320;BME280;4197;42.130;24.746;2023-12-20T13:21:36;99104.97;;;8.57;83.19
8320;BME280;4197;42.130;24.746;2023-12-20T13:24:06;99103.28;;;8.53;84.26